sensor_id;sensor_type;location;lat;lon;timestamp;P1;durP1;ratioP1;P2;durP2;ratioP2
13687;SDS011;6916;51.504;7.416;2024-03-08T00:03:09;211.73;;;137.95;;
13687;SDS011;6916;51.504;7.416;2024-03-08T00:18:12;194.65;;;130.27;;
13687;SDS011;6916;51.504;7.416;2024-03-08T00:33:15;186.70;;;122.85;;
13687;SDS011;6916;51.504;7.416;2024-03-08T00:48:18;169.73;;;113.47;;
13687;SDS011;6916;51.504;7.416;2024-03-08T01:03:22;165.15;;;110.32;;
13687;SDS011;6916;51.504;7.416;2024-03-08T01:18:25;152.55;;;103.82;;
13687;SDS011;6916;51.504;7.416;2024-03-08T01:33:28;142.57;;;99.20;;
13687;SDS011;6916;51.504;7.416;2024-03-08T01:48:33;140.65;;;95.32;;
13687;SDS011;6916;51.504;7.416;2024-03-08T02:03:36;126.43;;;86.90;;
13687;SDS011;6916;51.504;7.416;2024-03-08T02:18:39;122.53;;;82.53;;
13687;SDS011;6916;51.504;7.416;2024-03-08T02:33:42;114.28;;;78.15;;
13687;SDS011;6916;51.504;7.416;2024-03-08T02:48:45;102.93;;;71.05;;
13687;SDS011;6916;51.504;7.416;2024-03-08T03:03:48;104.10;;;69.05;;
13687;SDS011;6916;51.504;7.416;2024-03-08T03:18:51;95.95;;;66.63;;
13687;SDS011;6916;51.504;7.416;2024-03-08T03:33:54;87.72;;;60.97;;
13687;SDS011;6916;51.504;7.416;2024-03-08T03:49:02;80.13;;;55.80;;
13687;SDS011;6916;51.504;7.416;2024-03-08T04:04:06;71.75;;;48.97;;
13687;SDS011;6916;51.504;7.416;2024-03-08T04:19:09;62.97;;;43.13;;
13687;SDS011;6916;51.504;7.416;2024-03-08T04:34:12;53.15;;;37.80;;
13687;SDS011;6916;51.504;7.416;2024-03-08T04:49:16;45.53;;;34.00;;
13687;SDS011;6916;51.504;7.416;2024-03-08T05:04:19;38.90;;;29.45;;
13687;SDS011;6916;51.504;7.416;2024-03-08T05:19:22;37.33;;;27.25;;
13687;SDS011;6916;51.504;7.416;2024-03-08T05:34:25;31.13;;;22.92;;
13687;SDS011;6916;51.504;7.416;2024-03-08T05:49:31;29.23;;;22.58;;
13687;SDS011;6916;51.504;7.416;2024-03-08T06:04:35;27.90;;;21.27;;
13687;SDS011;6916;51.504;7.416;2024-03-08T06:19:39;25.02;;;19.05;;
13687;SDS011;6916;51.504;7.416;2024-03-08T06:34:42;104.90;;;63.30;;
13687;SDS011;6916;51.504;7.416;2024-03-08T06:49:45;155.63;;;97.32;;
13687;SDS011;6916;51.504;7.416;2024-03-08T07:04:51;185.73;;;117.68;;
13687;SDS011;6916;51.504;7.416;2024-03-08T07:19:54;85.72;;;56.80;;
13687;SDS011;6916;51.504;7.416;2024-03-08T07:34:58;48.92;;;34.50;;
13687;SDS011;6916;51.504;7.416;2024-03-08T07:50:04;50.30;;;32.30;;
13687;SDS011;6916;51.504;7.416;2024-03-08T08:05:10;45.78;;;28.25;;
13687;SDS011;6916;51.504;7.416;2024-03-08T08:20:15;52.13;;;37.50;;
13687;SDS011;6916;51.504;7.416;2024-03-08T08:35:20;101.32;;;61.78;;
13687;SDS011;6916;51.504;7.416;2024-03-08T08:50:24;109.88;;;65.28;;
13687;SDS011;6916;51.504;7.416;2024-03-08T09:05:30;105.18;;;61.45;;
13687;SDS011;6916;51.504;7.416;2024-03-08T09:20:34;161.07;;;100.50;;
13687;SDS011;6916;51.504;7.416;2024-03-08T09:35:38;165.63;;;101.72;;
13687;SDS011;6916;51.504;7.416;2024-03-08T09:50:42;244.32;;;151.88;;
13687;SDS011;6916;51.504;7.416;2024-03-08T10:05:45;222.45;;;138.70;;
13687;SDS011;6916;51.504;7.416;2024-03-08T10:20:53;199.60;;;122.88;;
13687;SDS011;6916;51.504;7.416;2024-03-08T10:36:07;170.38;;;105.72;;
13687;SDS011;6916;51.504;7.416;2024-03-08T10:51:12;141.43;;;88.88;;
13687;SDS011;6916;51.504;7.416;2024-03-08T11:06:16;130.57;;;80.82;;
13687;SDS011;6916;51.504;7.416;2024-03-08T11:21:25;230.55;;;139.85;;
13687;SDS011;6916;51.504;7.416;2024-03-08T11:36:29;116.47;;;69.15;;
13687;SDS011;6916;51.504;7.416;2024-03-08T11:51:37;75.63;;;48.17;;
13687;SDS011;6916;51.504;7.416;2024-03-08T12:06:40;61.10;;;38.90;;
13687;SDS011;6916;51.504;7.416;2024-03-08T12:21:44;77.65;;;48.92;;
13687;SDS011;6916;51.504;7.416;2024-03-08T12:36:50;131.15;;;79.30;;
13687;SDS011;6916;51.504;7.416;2024-03-08T12:51:56;217.48;;;123.40;;
13687;SDS011;6916;51.504;7.416;2024-03-08T13:06:59;127.18;;;74.57;;
13687;SDS011;6916;51.504;7.416;2024-03-08T13:22:03;178.18;;;101.07;;
13687;SDS011;6916;51.504;7.416;2024-03-08T13:37:07;68.03;;;42.45;;
13687;SDS011;6916;51.504;7.416;2024-03-08T13:52:11;69.90;;;43.55;;
13687;SDS011;6916;51.504;7.416;2024-03-08T14:07:20;56.60;;;35.15;;
13687;SDS011;6916;51.504;7.416;2024-03-08T14:22:24;136.82;;;82.53;;
13687;SDS011;6916;51.504;7.416;2024-03-08T14:37:28;284.77;;;164.15;;
13687;SDS011;6916;51.504;7.416;2024-03-08T14:52:31;118.18;;;70.22;;
13687;SDS011;6916;51.504;7.416;2024-03-08T15:07:36;175.55;;;104.88;;
13687;SDS011;6916;51.504;7.416;2024-03-08T15:22:47;254.18;;;155.68;;
13687;SDS011;6916;51.504;7.416;2024-03-08T15:37:50;58.07;;;42.67;;
13687;SDS011;6916;51.504;7.416;2024-03-08T15:52:54;39.75;;;27.10;;
13687;SDS011;6916;51.504;7.416;2024-03-08T16:07:57;19.48;;;13.02;;
13687;SDS011;6916;51.504;7.416;2024-03-08T16:23:00;25.02;;;16.20;;
13687;SDS011;6916;51.504;7.416;2024-03-08T16:38:04;40.92;;;28.63;;
13687;SDS011;6916;51.504;7.416;2024-03-08T16:53:09;17.77;;;13.40;;
13687;SDS011;6916;51.504;7.416;2024-03-08T17:08:13;35.58;;;22.70;;
13687;SDS011;6916;51.504;7.416;2024-03-08T17:23:19;17.98;;;12.75;;
13687;SDS011;6916;51.504;7.416;2024-03-08T17:38:23;17.65;;;12.13;;
13687;SDS011;6916;51.504;7.416;2024-03-08T17:53:26;17.25;;;12.18;;
13687;SDS011;6916;51.504;7.416;2024-03-08T18:08:32;66.05;;;41.47;;
